sensor_id;sensor_type;location;lat;lon;timestamp;pressure;altitude;pressure_sealevel;temperature
27826;BMP280;15077;49.704;9.908;2023-08-21T00:00:50;98667.88;;;30.66
27826;BMP280;15077;49.704;9.908;2023-08-21T00:03:16;98668.38;;;30.61
27826;BMP280;15077;49.704;9.908;2023-08-21T00:05:42;98673.34;;;30.56
27826;BMP280;15077;49.704;9.908;2023-08-21T00:08:07;98675.66;;;30.51
27826;BMP280;15077;49.704;9.908;2023-08-21T00:10:37;98659.47;;;30.48
27826;BMP280;15077;49.704;9.908;2023-08-21T00:13:04;98674.72;;;30.44
27826;BMP280;15077;49.704;9.908;2023-08-21T00:15:30;98672.44;;;30.41
27826;BMP280;15077;49.704;9.908;2023-08-21T00:17:59;98669.50;;;30.37
27826;BMP280;15077;49.704;9.908;2023-08-21T00:20:26;98672.44;;;30.34
27826;BMP280;15077;49.704;9.908;2023-08-21T00:22:52;98672.44;;;30.34
27826;BMP280;15077;49.704;9.908;2023-08-21T00:25:20;98677.03;;;30.32
27826;BMP280;15077;49.704;9.908;2023-08-21T00:27:48;98670.66;;;30.26
27826;BMP280;15077;49.704;9.908;2023-08-21T00:30:14;98666.97;;;30.21
27826;BMP280;15077;49.704;9.908;2023-08-21T00:32:42;98670.72;;;30.18
27826;BMP280;15077;49.704;9.908;2023-08-21T00:35:10;98671.06;;;30.15
27826;BMP280;15077;49.704;9.908;2023-08-21T00:37:37;98674.97;;;30.11
27826;BMP280;15077;49.704;9.908;2023-08-21T00:40:05;98670.09;;;30.08
27826;BMP280;15077;49.704;9.908;2023-08-21T00:42:31;98674.06;;;30.04
27826;BMP280;15077;49.704;9.908;2023-08-21T00:44:57;98683.03;;;30.02
27826;BMP280;15077;49.704;9.908;2023-08-21T00:47:23;98678.78;;;30.01
27826;BMP280;15077;49.704;9.908;2023-08-21T00:49:49;98678.31;;;29.97
27826;BMP280;15077;49.704;9.908;2023-08-21T00:52:15;98682.06;;;29.95
27826;BMP280;15077;49.704;9.908;2023-08-21T00:54:43;98678.00;;;29.92
27826;BMP280;15077;49.704;9.908;2023-08-21T00:57:10;98679.50;;;29.87
27826;BMP280;15077;49.704;9.908;2023-08-21T00:59:37;98676.22;;;29.85
27826;BMP280;15077;49.704;9.908;2023-08-21T01:02:06;98681.78;;;29.82
27826;BMP280;15077;49.704;9.908;2023-08-21T01:04:34;98673.31;;;29.80
27826;BMP280;15077;49.704;9.908;2023-08-21T01:07:00;98671.97;;;29.76
27826;BMP280;15077;49.704;9.908;2023-08-21T01:09:50;98672.63;;;29.70
27826;BMP280;15077;49.704;9.908;2023-08-21T01:14:58;98662.84;;;29.64
27826;BMP280;15077;49.704;9.908;2023-08-21T01:17:28;98675.91;;;29.64
27826;BMP280;15077;49.704;9.908;2023-08-21T01:19:57;98672.03;;;29.60
27826;BMP280;15077;49.704;9.908;2023-08-21T01:22:36;98668.09;;;29.56
27826;BMP280;15077;49.704;9.908;2023-08-21T01:25:06;98669.41;;;29.52
27826;BMP280;15077;49.704;9.908;2023-08-21T01:27:37;98675.78;;;29.50
27826;BMP280;15077;49.704;9.908;2023-08-21T01:30:07;98665.66;;;29.47
27826;BMP280;15077;49.704;9.908;2023-08-21T01:32:59;98671.84;;;29.38
27826;BMP280;15077;49.704;9.908;2023-08-21T01:35:30;98674.31;;;29.39
27826;BMP280;15077;49.704;9.908;2023-08-21T01:37:59;98676.28;;;29.38
27826;BMP280;15077;49.704;9.908;2023-08-21T01:40:28;98672.19;;;29.35
27826;BMP280;15077;49.704;9.908;2023-08-21T01:42:54;98668.13;;;29.33
27826;BMP280;15077;49.704;9.908;2023-08-21T01:45:21;98679.53;;;29.32
27826;BMP280;15077;49.704;9.908;2023-08-21T01:47:51;98673.69;;;29.30
27826;BMP280;15077;49.704;9.908;2023-08-21T01:50:18;98674.00;;;29.27
27826;BMP280;15077;49.704;9.908;2023-08-21T01:52:44;98669.09;;;29.24
27826;BMP280;15077;49.704;9.908;2023-08-21T01:55:11;98665.81;;;29.22
27826;BMP280;15077;49.704;9.908;2023-08-21T01:57:38;98662.56;;;29.20
27826;BMP280;15077;49.704;9.908;2023-08-21T02:00:04;98671.34;;;29.19
27826;BMP280;15077;49.704;9.908;2023-08-21T02:02:32;98669.06;;;29.16
27826;BMP280;15077;49.704;9.908;2023-08-21T02:04:58;98672.00;;;29.13
27826;BMP280;15077;49.704;9.908;2023-08-21T02:07:24;98667.13;;;29.10
27826;BMP280;15077;49.704;9.908;2023-08-21T02:09:50;98678.72;;;29.07
27826;BMP280;15077;49.704;9.908;2023-08-21T02:12:17;98677.06;;;29.06
27826;BMP280;15077;49.704;9.908;2023-08-21T02:14:43;98676.59;;;29.03
27826;BMP280;15077;49.704;9.908;2023-08-21T02:17:13;98670.53;;;29.02
27826;BMP280;15077;49.704;9.908;2023-08-21T02:19:40;98674.59;;;28.97
27826;BMP280;15077;49.704;9.908;2023-08-21T02:22:05;98676.41;;;28.96
27826;BMP280;15077;49.704;9.908;2023-08-21T02:24:32;98672.31;;;28.94
27826;BMP280;15077;49.704;9.908;2023-08-21T02:27:00;98673.63;;;28.90
27826;BMP280;15077;49.704;9.908;2023-08-21T02:29:28;98663.38;;;28.88
27826;BMP280;15077;49.704;9.908;2023-08-21T02:31:55;98666.13;;;28.87
27826;BMP280;15077;49.704;9.908;2023-08-21T02:34:21;98667.44;;;28.83
27826;BMP280;15077;49.704;9.908;2023-08-21T02:36:47;98678.03;;;28.82
27826;BMP280;15077;49.704;9.908;2023-08-21T02:39:13;98667.91;;;28.79
27826;BMP280;15077;49.704;9.908;2023-08-21T02:41:38;98663.03;;;28.76
27826;BMP280;15077;49.704;9.908;2023-08-21T02:44:04;98671.81;;;28.75
27826;BMP280;15077;49.704;9.908;2023-08-21T02:46:30;98672.13;;;28.72
27826;BMP280;15077;49.704;9.908;2023-08-21T02:48:55;98674.09;;;28.70
27826;BMP280;15077;49.704;9.908;2023-08-21T02:51:21;98672.63;;;28.67
27826;BMP280;15077;49.704;9.908;2023-08-21T02:53:48;98671.13;;;28.65
27826;BMP280;15077;49.704;9.908;2023-08-21T02:56:25;98671.63;;;28.60
27826;BMP280;15077;49.704;9.908;2023-08-21T02:58:52;98676.16;;;28.58
27826;BMP280;15077;49.704;9.908;2023-08-21T03:01:19;98678.13;;;28.56
27826;BMP280;15077;49.704;9.908;2023-08-21T03:03:47;98672.22;;;28.54
27826;BMP280;15077;49.704;9.908;2023-08-21T03:06:16;98682.00;;;28.52
27826;BMP280;15077;49.704;9.908;2023-08-21T03:08:42;98681.53;;;28.49
27826;BMP280;15077;49.704;9.908;2023-08-21T03:11:09;98679.88;;;28.48
27826;BMP280;15077;49.704;9.908;2023-08-21T03:13:36;98681.00;;;28.45
27826;BMP280;15077;49.704;9.908;2023-08-21T03:16:08;98672.22;;;28.46
27826;BMP280;15077;49.704;9.908;2023-08-21T03:18:58;98672.84;;;28.40
27826;BMP280;15077;49.704;9.908;2023-08-21T03:21:24;98678.88;;;28.41
27826;BMP280;15077;49.704;9.908;2023-08-21T03:23:54;98672.19;;;28.38
27826;BMP280;15077;49.704;9.908;2023-08-21T03:26:25;98673.31;;;28.36
27826;BMP280;15077;49.704;9.908;2023-08-21T03:28:54;98676.41;;;28.32
27826;BMP280;15077;49.704;9.908;2023-08-21T03:31:22;98667.09;;;28.29
27826;BMP280;15077;49.704;9.908;2023-08-21T03:33:52;98670.84;;;28.27
27826;BMP280;15077;49.704;9.908;2023-08-21T03:36:18;98668.56;;;28.24
27826;BMP280;15077;49.704;9.908;2023-08-21T03:38:45;98678.31;;;28.22
27826;BMP280;15077;49.704;9.908;2023-08-21T03:41:12;98673.25;;;28.20
27826;BMP280;15077;49.704;9.908;2023-08-21T03:43:38;98670.97;;;28.17
27826;BMP280;15077;49.704;9.908;2023-08-21T03:46:05;98667.72;;;28.15
27826;BMP280;15077;49.704;9.908;2023-08-21T03:48:33;98672.28;;;28.13
27826;BMP280;15077;49.704;9.908;2023-08-21T03:51:01;98674.03;;;28.13
27826;BMP280;15077;49.704;9.908;2023-08-21T03:53:28;98671.88;;;28.08
27826;BMP280;15077;49.704;9.908;2023-08-21T03:55:58;98681.50;;;28.08
27826;BMP280;15077;49.704;9.908;2023-08-21T03:58:26;98680.16;;;28.04
27826;BMP280;15077;49.704;9.908;2023-08-21T04:00:54;98675.91;;;28.03
27826;BMP280;15077;49.704;9.908;2023-08-21T04:03:22;98678.69;;;28.01
27826;BMP280;15077;49.704;9.908;2023-08-21T04:05:49;98681.44;;;28.00
27826;BMP280;15077;49.704;9.908;2023-08-21T04:08:16;98686.00;;;27.98
27826;BMP280;15077;49.704;9.908;2023-08-21T04:10:44;98677.69;;;27.94
27826;BMP280;15077;49.704;9.908;2023-08-21T04:13:12;98684.66;;;27.94
27826;BMP280;15077;49.704;9.908;2023-08-21T04:15:48;98677.84;;;27.93
27826;BMP280;15077;49.704;9.908;2023-08-21T04:18:15;98688.56;;;27.90
27826;BMP280;15077;49.704;9.908;2023-08-21T04:20:40;98676.50;;;27.89
27826;BMP280;15077;49.704;9.908;2023-08-21T04:23:06;98673.91;;;27.89
27826;BMP280;15077;49.704;9.908;2023-08-21T04:25:32;98683.69;;;27.87
27826;BMP280;15077;49.704;9.908;2023-08-21T04:27:57;98689.03;;;27.86
27826;BMP280;15077;49.704;9.908;2023-08-21T04:30:23;98685.75;;;27.84
27826;BMP280;15077;49.704;9.908;2023-08-21T04:32:49;98689.19;;;27.84
27826;BMP280;15077;49.704;9.908;2023-08-21T04:35:15;98695.22;;;27.85
27826;BMP280;15077;49.704;9.908;2023-08-21T04:37:47;98688.34;;;27.84
27826;BMP280;15077;49.704;9.908;2023-08-21T04:40:13;98689.50;;;27.81
27826;BMP280;15077;49.704;9.908;2023-08-21T04:42:39;98691.13;;;27.82
27826;BMP280;15077;49.704;9.908;2023-08-21T04:45:05;98685.91;;;27.82
27826;BMP280;15077;49.704;9.908;2023-08-21T04:47:31;98695.69;;;27.80
27826;BMP280;15077;49.704;9.908;2023-08-21T04:49:58;98690.63;;;27.79
27826;BMP280;15077;49.704;9.908;2023-08-21T04:52:24;98696.63;;;27.79
27826;BMP280;15077;49.704;9.908;2023-08-21T04:54:52;98694.19;;;27.78
27826;BMP280;15077;49.704;9.908;2023-08-21T04:57:18;98705.44;;;27.78
27826;BMP280;15077;49.704;9.908;2023-08-21T04:59:44;98707.38;;;27.76
27826;BMP280;15077;49.704;9.908;2023-08-21T05:02:24;98702.16;;;27.76
27826;BMP280;15077;49.704;9.908;2023-08-21T05:04:50;98705.75;;;27.75
27826;BMP280;15077;49.704;9.908;2023-08-21T05:07:15;98707.53;;;27.75
27826;BMP280;15077;49.704;9.908;2023-08-21T05:09:41;98715.34;;;27.75
27826;BMP280;15077;49.704;9.908;2023-08-21T05:12:08;98710.97;;;27.75
27826;BMP280;15077;49.704;9.908;2023-08-21T05:14:34;98712.72;;;27.75
27826;BMP280;15077;49.704;9.908;2023-08-21T05:17:00;98716.19;;;27.75
27826;BMP280;15077;49.704;9.908;2023-08-21T05:19:25;98716.97;;;27.76
27826;BMP280;15077;49.704;9.908;2023-08-21T05:21:51;98718.78;;;27.75
27826;BMP280;15077;49.704;9.908;2023-08-21T05:24:17;98720.41;;;27.76
27826;BMP280;15077;49.704;9.908;2023-08-21T05:26:43;98715.19;;;27.76
27826;BMP280;15077;49.704;9.908;2023-08-21T05:29:08;98710.97;;;27.75
27826;BMP280;15077;49.704;9.908;2023-08-21T05:31:34;98716.81;;;27.77
27826;BMP280;15077;49.704;9.908;2023-08-21T05:34:00;98707.22;;;27.78
27826;BMP280;15077;49.704;9.908;2023-08-21T05:36:26;98712.28;;;27.79
27826;BMP280;15077;49.704;9.908;2023-08-21T05:38:52;98714.88;;;27.79
27826;BMP280;15077;49.704;9.908;2023-08-21T05:41:18;98719.94;;;27.81
27826;BMP280;15077;49.704;9.908;2023-08-21T05:43:44;98721.56;;;27.82
27826;BMP280;15077;49.704;9.908;2023-08-21T05:46:11;98730.19;;;27.82
27826;BMP280;15077;49.704;9.908;2023-08-21T05:48:37;98721.41;;;27.83
27826;BMP280;15077;49.704;9.908;2023-08-21T05:51:02;98719.63;;;27.84
27826;BMP280;15077;49.704;9.908;2023-08-21T05:53:29;98725.69;;;27.84
27826;BMP280;15077;49.704;9.908;2023-08-21T05:55:54;98723.06;;;27.84
27826;BMP280;15077;49.704;9.908;2023-08-21T05:58:20;98723.72;;;27.86
27826;BMP280;15077;49.704;9.908;2023-08-21T06:00:47;98731.38;;;27.88
27826;BMP280;15077;49.704;9.908;2023-08-21T06:03:13;98733.84;;;27.89
27826;BMP280;15077;49.704;9.908;2023-08-21T06:05:57;98738.41;;;27.87
27826;BMP280;15077;49.704;9.908;2023-08-21T06:08:23;98736.28;;;27.90
27826;BMP280;15077;49.704;9.908;2023-08-21T06:10:52;98736.78;;;27.94
27826;BMP280;15077;49.704;9.908;2023-08-21T06:13:18;98738.44;;;27.95
27826;BMP280;15077;49.704;9.908;2023-08-21T06:15:44;98743.34;;;27.98
27826;BMP280;15077;49.704;9.908;2023-08-21T06:18:14;98743.03;;;28.01
27826;BMP280;15077;49.704;9.908;2023-08-21T06:20:43;98747.94;;;28.04
27826;BMP280;15077;49.704;9.908;2023-08-21T06:23:10;98752.03;;;28.06
27826;BMP280;15077;49.704;9.908;2023-08-21T06:25:36;98748.25;;;28.09
27826;BMP280;15077;49.704;9.908;2023-08-21T06:28:02;98753.09;;;28.13
27826;BMP280;15077;49.704;9.908;2023-08-21T06:30:28;98757.16;;;28.16
27826;BMP280;15077;49.704;9.908;2023-08-21T06:32:55;98756.03;;;28.18
27826;BMP280;15077;49.704;9.908;2023-08-21T06:35:21;98760.13;;;28.21
27826;BMP280;15077;49.704;9.908;2023-08-21T06:37:47;98760.63;;;28.24
27826;BMP280;15077;49.704;9.908;2023-08-21T06:40:13;98760.16;;;28.29
27826;BMP280;15077;49.704;9.908;2023-08-21T06:42:38;98762.44;;;28.32
27826;BMP280;15077;49.704;9.908;2023-08-21T06:45:05;98766.88;;;28.39
27826;BMP280;15077;49.704;9.908;2023-08-21T06:47:32;98762.16;;;28.42
27826;BMP280;15077;49.704;9.908;2023-08-21T06:49:57;98762.69;;;28.46
27826;BMP280;15077;49.704;9.908;2023-08-21T06:52:26;98761.91;;;28.53
27826;BMP280;15077;49.704;9.908;2023-08-21T06:54:52;98770.22;;;28.57
27826;BMP280;15077;49.704;9.908;2023-08-21T06:57:18;98770.91;;;28.59
27826;BMP280;15077;49.704;9.908;2023-08-21T06:59:43;98774.16;;;28.61
27826;BMP280;15077;49.704;9.908;2023-08-21T07:02:09;98764.22;;;28.64
27826;BMP280;15077;49.704;9.908;2023-08-21T07:04:35;98765.56;;;28.68
27826;BMP280;15077;49.704;9.908;2023-08-21T07:07:01;98765.25;;;28.71
27826;BMP280;15077;49.704;9.908;2023-08-21T07:09:27;98767.38;;;28.76
27826;BMP280;15077;49.704;9.908;2023-08-21T07:11:52;98768.72;;;28.80
27826;BMP280;15077;49.704;9.908;2023-08-21T07:14:19;98768.22;;;28.84
27826;BMP280;15077;49.704;9.908;2023-08-21T07:16:45;98764.31;;;28.88
27826;BMP280;15077;49.704;9.908;2023-08-21T07:19:11;98772.50;;;28.93
27826;BMP280;15077;49.704;9.908;2023-08-21T07:21:36;98774.63;;;28.97
27826;BMP280;15077;49.704;9.908;2023-08-21T07:24:04;98773.97;;;29.03
27826;BMP280;15077;49.704;9.908;2023-08-21T07:26:30;98765.66;;;29.08
27826;BMP280;15077;49.704;9.908;2023-08-21T07:28:56;98765.19;;;29.12
27826;BMP280;15077;49.704;9.908;2023-08-21T07:31:22;98765.50;;;29.17
27826;BMP280;15077;49.704;9.908;2023-08-21T07:33:48;98764.06;;;29.23
27826;BMP280;15077;49.704;9.908;2023-08-21T07:36:14;98767.03;;;29.28
27826;BMP280;15077;49.704;9.908;2023-08-21T07:38:43;98761.16;;;29.34
27826;BMP280;15077;49.704;9.908;2023-08-21T07:41:12;98764.09;;;29.38
27826;BMP280;15077;49.704;9.908;2023-08-21T07:43:43;98761.81;;;29.43
27826;BMP280;15077;49.704;9.908;2023-08-21T07:46:12;98767.34;;;29.48
27826;BMP280;15077;49.704;9.908;2023-08-21T07:48:44;98771.28;;;29.52
27826;BMP280;15077;49.704;9.908;2023-08-21T07:51:11;98767.03;;;29.59
27826;BMP280;15077;49.704;9.908;2023-08-21T07:53:37;98768.19;;;29.65
27826;BMP280;15077;49.704;9.908;2023-08-21T07:56:04;98769.16;;;29.72
27826;BMP280;15077;49.704;9.908;2023-08-21T07:58:31;98767.69;;;29.77
27826;BMP280;15077;49.704;9.908;2023-08-21T08:00:58;98767.06;;;29.83
27826;BMP280;15077;49.704;9.908;2023-08-21T08:03:24;98761.97;;;29.89
27826;BMP280;15077;49.704;9.908;2023-08-21T08:05:50;98768.16;;;29.96
27826;BMP280;15077;49.704;9.908;2023-08-21T08:08:17;98763.09;;;30.03
27826;BMP280;15077;49.704;9.908;2023-08-21T08:10:43;98764.22;;;30.08
27826;BMP280;15077;49.704;9.908;2023-08-21T08:13:10;98768.63;;;30.16
27826;BMP280;15077;49.704;9.908;2023-08-21T08:15:35;98762.72;;;30.22
27826;BMP280;15077;49.704;9.908;2023-08-21T08:18:03;98770.56;;;30.30
27826;BMP280;15077;49.704;9.908;2023-08-21T08:20:30;98771.50;;;30.37
27826;BMP280;15077;49.704;9.908;2023-08-21T08:22:56;98772.47;;;30.43
27826;BMP280;15077;49.704;9.908;2023-08-21T08:25:22;98762.97;;;30.50
27826;BMP280;15077;49.704;9.908;2023-08-21T08:27:48;98764.75;;;30.58
27826;BMP280;15077;49.704;9.908;2023-08-21T08:30:14;98764.69;;;30.66
27826;BMP280;15077;49.704;9.908;2023-08-21T08:32:42;98763.84;;;30.73
27826;BMP280;15077;49.704;9.908;2023-08-21T08:35:13;98767.41;;;30.80
27826;BMP280;15077;49.704;9.908;2023-08-21T08:37:44;98769.03;;;30.89
27826;BMP280;15077;49.704;9.908;2023-08-21T08:40:11;98763.75;;;30.97
27826;BMP280;15077;49.704;9.908;2023-08-21T08:42:38;98764.50;;;31.05
27826;BMP280;15077;49.704;9.908;2023-08-21T08:45:04;98758.41;;;31.13
27826;BMP280;15077;49.704;9.908;2023-08-21T08:47:34;98757.19;;;31.23
27826;BMP280;15077;49.704;9.908;2023-08-21T08:50:07;98759.59;;;31.33
27826;BMP280;15077;49.704;9.908;2023-08-21T08:52:39;98761.19;;;31.41
27826;BMP280;15077;49.704;9.908;2023-08-21T08:55:06;98757.50;;;31.50
27826;BMP280;15077;49.704;9.908;2023-08-21T08:57:33;98755.47;;;31.60
27826;BMP280;15077;49.704;9.908;2023-08-21T09:00:00;98756.00;;;31.70
27826;BMP280;15077;49.704;9.908;2023-08-21T09:02:25;98756.56;;;31.80
27826;BMP280;15077;49.704;9.908;2023-08-21T09:04:54;98756.16;;;31.91
27826;BMP280;15077;49.704;9.908;2023-08-21T09:07:20;98750.66;;;32.00
27826;BMP280;15077;49.704;9.908;2023-08-21T09:09:49;98751.03;;;32.12
27826;BMP280;15077;49.704;9.908;2023-08-21T09:12:17;98750.59;;;32.23
27826;BMP280;15077;49.704;9.908;2023-08-21T09:14:44;98748.50;;;32.33
27826;BMP280;15077;49.704;9.908;2023-08-21T09:17:10;98744.78;;;32.41
27826;BMP280;15077;49.704;9.908;2023-08-21T09:19:37;98743.53;;;32.52
27826;BMP280;15077;49.704;9.908;2023-08-21T09:22:17;98740.63;;;32.61
27826;BMP280;15077;49.704;9.908;2023-08-21T09:25:07;98748.59;;;32.68
27826;BMP280;15077;49.704;9.908;2023-08-21T09:27:36;98740.50;;;32.84
27826;BMP280;15077;49.704;9.908;2023-08-21T09:30:10;98739.84;;;32.96
27826;BMP280;15077;49.704;9.908;2023-08-21T09:32:58;98732.47;;;33.06
27826;BMP280;15077;49.704;9.908;2023-08-21T09:35:26;98728.59;;;33.23
27826;BMP280;15077;49.704;9.908;2023-08-21T09:37:52;98729.72;;;33.35
27826;BMP280;15077;49.704;9.908;2023-08-21T09:40:19;98729.88;;;33.47
27826;BMP280;15077;49.704;9.908;2023-08-21T09:42:45;98724.91;;;33.59
27826;BMP280;15077;49.704;9.908;2023-08-21T09:45:11;98725.81;;;33.72
27826;BMP280;15077;49.704;9.908;2023-08-21T09:47:38;98718.03;;;33.85
27826;BMP280;15077;49.704;9.908;2023-08-21T09:50:05;98726.41;;;33.95
27826;BMP280;15077;49.704;9.908;2023-08-21T09:52:31;98728.50;;;34.06
27826;BMP280;15077;49.704;9.908;2023-08-21T09:54:57;98728.59;;;34.19
27826;BMP280;15077;49.704;9.908;2023-08-21T09:57:23;98721.13;;;34.29
27826;BMP280;15077;49.704;9.908;2023-08-21T09:59:53;98722.84;;;34.42
27826;BMP280;15077;49.704;9.908;2023-08-21T10:02:23;98728.34;;;34.54
27826;BMP280;15077;49.704;9.908;2023-08-21T10:04:49;98719.91;;;34.65
27826;BMP280;15077;49.704;9.908;2023-08-21T10:07:23;98719.13;;;34.77
27826;BMP280;15077;49.704;9.908;2023-08-21T10:09:52;98724.03;;;34.87
27826;BMP280;15077;49.704;9.908;2023-08-21T10:12:18;98710.50;;;34.96
27826;BMP280;15077;49.704;9.908;2023-08-21T10:14:45;98702.81;;;35.07
27826;BMP280;15077;49.704;9.908;2023-08-21T10:17:11;98705.03;;;35.17
27826;BMP280;15077;49.704;9.908;2023-08-21T10:19:37;98705.06;;;35.30
27826;BMP280;15077;49.704;9.908;2023-08-21T10:22:03;98701.25;;;35.38
27826;BMP280;15077;49.704;9.908;2023-08-21T10:24:35;98711.41;;;35.48
27826;BMP280;15077;49.704;9.908;2023-08-21T10:27:06;98706.72;;;35.56
27826;BMP280;15077;49.704;9.908;2023-08-21T10:29:33;98703.47;;;35.67
27826;BMP280;15077;49.704;9.908;2023-08-21T10:32:01;98703.44;;;35.80
27826;BMP280;15077;49.704;9.908;2023-08-21T10:34:36;98699.19;;;35.92
27826;BMP280;15077;49.704;9.908;2023-08-21T10:37:08;98699.16;;;36.05
27826;BMP280;15077;49.704;9.908;2023-08-21T10:39:45;98689.78;;;36.15
27826;BMP280;15077;49.704;9.908;2023-08-21T10:42:19;98702.78;;;36.23
27826;BMP280;15077;49.704;9.908;2023-08-21T10:44:49;98688.94;;;36.34
27826;BMP280;15077;49.704;9.908;2023-08-21T10:49:55;98689.09;;;36.45
27826;BMP280;15077;49.704;9.908;2023-08-21T10:52:51;98689.28;;;36.50
27826;BMP280;15077;49.704;9.908;2023-08-21T10:55:16;98695.75;;;36.54
27826;BMP280;15077;49.704;9.908;2023-08-21T10:57:46;98687.78;;;36.61
27826;BMP280;15077;49.704;9.908;2023-08-21T11:00:15;98689.59;;;36.67
27826;BMP280;15077;49.704;9.908;2023-08-21T11:02:45;98689.19;;;36.76
27826;BMP280;15077;49.704;9.908;2023-08-21T11:05:13;98683.41;;;36.86
27826;BMP280;15077;49.704;9.908;2023-08-21T11:07:47;98687.22;;;36.96
27826;BMP280;15077;49.704;9.908;2023-08-21T11:10:16;98684.91;;;37.06
27826;BMP280;15077;49.704;9.908;2023-08-21T11:12:54;98688.34;;;37.13
27826;BMP280;15077;49.704;9.908;2023-08-21T11:15:27;98674.66;;;37.22
27826;BMP280;15077;49.704;9.908;2023-08-21T11:17:59;98677.19;;;37.35
27826;BMP280;15077;49.704;9.908;2023-08-21T11:20:33;98687.72;;;37.41
27826;BMP280;15077;49.704;9.908;2023-08-21T11:23:04;98677.88;;;37.48
27826;BMP280;15077;49.704;9.908;2023-08-21T11:25:33;98680.69;;;37.53
27826;BMP280;15077;49.704;9.908;2023-08-21T11:28:00;98679.81;;;37.59
27826;BMP280;15077;49.704;9.908;2023-08-21T11:30:31;98674.50;;;37.66
27826;BMP280;15077;49.704;9.908;2023-08-21T11:35:32;98671.56;;;37.74
27826;BMP280;15077;49.704;9.908;2023-08-21T11:37:58;98660.53;;;37.77
27826;BMP280;15077;49.704;9.908;2023-08-21T11:40:23;98666.00;;;37.82
27826;BMP280;15077;49.704;9.908;2023-08-21T11:42:52;98674.31;;;37.85
27826;BMP280;15077;49.704;9.908;2023-08-21T11:45:20;98672.84;;;37.89
27826;BMP280;15077;49.704;9.908;2023-08-21T11:47:47;98668.94;;;37.91
27826;BMP280;15077;49.704;9.908;2023-08-21T11:50:15;98674.19;;;37.98
27826;BMP280;15077;49.704;9.908;2023-08-21T11:52:43;98671.88;;;38.01
27826;BMP280;15077;49.704;9.908;2023-08-21T11:55:10;98673.91;;;38.06
27826;BMP280;15077;49.704;9.908;2023-08-21T11:57:50;98663.88;;;38.08
27826;BMP280;15077;49.704;9.908;2023-08-21T12:00:17;98674.03;;;38.11
27826;BMP280;15077;49.704;9.908;2023-08-21T12:02:58;98668.75;;;38.11
27826;BMP280;15077;49.704;9.908;2023-08-21T12:05:25;98672.00;;;38.13
27826;BMP280;15077;49.704;9.908;2023-08-21T12:07:52;98677.13;;;38.08
27826;BMP280;15077;49.704;9.908;2023-08-21T12:10:26;98675.31;;;38.08
27826;BMP280;15077;49.704;9.908;2023-08-21T12:12:53;98668.75;;;38.11
27826;BMP280;15077;49.704;9.908;2023-08-21T12:15:19;98676.84;;;38.16
27826;BMP280;15077;49.704;9.908;2023-08-21T12:17:45;98672.72;;;38.20
27826;BMP280;15077;49.704;9.908;2023-08-21T12:20:11;98668.38;;;38.25
27826;BMP280;15077;49.704;9.908;2023-08-21T12:22:38;98662.41;;;38.30
27826;BMP280;15077;49.704;9.908;2023-08-21T12:25:06;98666.47;;;38.32
27826;BMP280;15077;49.704;9.908;2023-08-21T12:27:31;98671.09;;;38.37
27826;BMP280;15077;49.704;9.908;2023-08-21T12:29:57;98662.69;;;38.39
27826;BMP280;15077;49.704;9.908;2023-08-21T12:32:23;98659.59;;;38.42
27826;BMP280;15077;49.704;9.908;2023-08-21T12:34:49;98656.09;;;38.48
27826;BMP280;15077;49.704;9.908;2023-08-21T12:37:14;98653.78;;;38.52
27826;BMP280;15077;49.704;9.908;2023-08-21T12:39:40;98658.19;;;38.58
27826;BMP280;15077;49.704;9.908;2023-08-21T12:42:06;98653.84;;;38.63
27826;BMP280;15077;49.704;9.908;2023-08-21T12:44:33;98655.00;;;38.67
27826;BMP280;15077;49.704;9.908;2023-08-21T12:47:00;98657.00;;;38.72
27826;BMP280;15077;49.704;9.908;2023-08-21T12:49:26;98649.84;;;38.72
27826;BMP280;15077;49.704;9.908;2023-08-21T12:51:52;98659.97;;;38.75
27826;BMP280;15077;49.704;9.908;2023-08-21T12:54:18;98656.31;;;38.76
27826;BMP280;15077;49.704;9.908;2023-08-21T12:56:44;98643.84;;;38.77
27826;BMP280;15077;49.704;9.908;2023-08-21T12:59:09;98642.03;;;38.77
27826;BMP280;15077;49.704;9.908;2023-08-21T13:01:35;98643.19;;;38.81
27826;BMP280;15077;49.704;9.908;2023-08-21T13:04:03;98646.44;;;38.83
27826;BMP280;15077;49.704;9.908;2023-08-21T13:06:29;98642.72;;;38.84
27826;BMP280;15077;49.704;9.908;2023-08-21T13:08:55;98647.00;;;38.85
27826;BMP280;15077;49.704;9.908;2023-08-21T13:11:21;98634.78;;;38.84
27826;BMP280;15077;49.704;9.908;2023-08-21T13:13:47;98636.63;;;38.84
27826;BMP280;15077;49.704;9.908;2023-08-21T13:16:12;98634.78;;;38.84
27826;BMP280;15077;49.704;9.908;2023-08-21T13:18:39;98632.13;;;38.84
27826;BMP280;15077;49.704;9.908;2023-08-21T13:21:05;98630.31;;;38.85
27826;BMP280;15077;49.704;9.908;2023-08-21T13:23:30;98629.47;;;38.84
27826;BMP280;15077;49.704;9.908;2023-08-21T13:25:57;98628.44;;;38.85
27826;BMP280;15077;49.704;9.908;2023-08-21T13:28:24;98625.78;;;38.85
27826;BMP280;15077;49.704;9.908;2023-08-21T13:30:50;98627.19;;;38.88
27826;BMP280;15077;49.704;9.908;2023-08-21T13:33:16;98627.56;;;38.91
27826;BMP280;15077;49.704;9.908;2023-08-21T13:35:44;98621.81;;;38.94
27826;BMP280;15077;49.704;9.908;2023-08-21T13:38:15;98619.50;;;38.97
27826;BMP280;15077;49.704;9.908;2023-08-21T13:40:41;98615.03;;;38.98
27826;BMP280;15077;49.704;9.908;2023-08-21T13:43:07;98613.50;;;39.02
27826;BMP280;15077;49.704;9.908;2023-08-21T13:45:35;98612.47;;;39.03
27826;BMP280;15077;49.704;9.908;2023-08-21T13:48:01;98606.38;;;39.02
27826;BMP280;15077;49.704;9.908;2023-08-21T13:50:27;98607.66;;;39.00
27826;BMP280;15077;49.704;9.908;2023-08-21T13:52:52;98605.22;;;38.98
27826;BMP280;15077;49.704;9.908;2023-08-21T13:55:18;98599.56;;;38.95
27826;BMP280;15077;49.704;9.908;2023-08-21T13:57:44;98602.69;;;38.92
27826;BMP280;15077;49.704;9.908;2023-08-21T14:00:11;98603.94;;;38.90
27826;BMP280;15077;49.704;9.908;2023-08-21T14:02:43;98589.47;;;38.86
27826;BMP280;15077;49.704;9.908;2023-08-21T14:05:09;98599.28;;;38.85
27826;BMP280;15077;49.704;9.908;2023-08-21T14:07:36;98593.19;;;38.85
27826;BMP280;15077;49.704;9.908;2023-08-21T14:10:04;98591.56;;;38.84
27826;BMP280;15077;49.704;9.908;2023-08-21T14:12:33;98592.59;;;38.83
27826;BMP280;15077;49.704;9.908;2023-08-21T14:15:00;98587.97;;;38.78
27826;BMP280;15077;49.704;9.908;2023-08-21T14:17:27;98589.47;;;38.74
27826;BMP280;15077;49.704;9.908;2023-08-21T14:19:52;98588.31;;;38.70